+ Responder Tema
Resultados 1 al 1 de 1
  1. #1
    * Banned *
    07 sep, 12

    Accident: Air Contractors A30B at Bratislava on Nov 16th 2012, nose gear collapse on landing, runway

    An Air Contractors Airbus A300-B4 on behalf of EAT Leipzig on behalf of DHL, registration EI-EAC performing freight flight QY-6321 from Leipzig (Germany) to Bratislava (Slovakia) with 3 crew, landed on Bratislava's runway 22 at 05:25L (04:24Z) when after touch down and during roll out the nose gear collapsed. The aircraft veered left off the runway and came to a stop on its main gear and nose about 1800 meters past the runway threshold with all gear on soft ground, no injuries occurred. The aircraft received damage to the nose gear, front section of the belly as well as both engines, which contacted soft ground.

    DHL reported there was no damage to the cargo. The crew had not reported any problems prior to landing, the aircraft was in the roll out at relatively low speed already when the nose gear collapsed.

    Runway 04/22 as well as a number of taxiways are currently closed as result of the occurrence. The airport continues operations on runway 13/31.

    LZIB 160700Z 13007KT 9999 FEW014 BKN027 06/03 Q1025 NOSIG
    LZIB 160630Z 15007KT 9999 FEW014 BKN027 06/03 Q1024 NOSIG
    LZIB 160600Z 15008KT 9999 FEW014 OVC027 06/03 Q1024 NOSIG
    LZIB 160530Z 14008KT 8000 FEW015 BKN027 06/03 Q1024 NOSIG
    LZIB 160500Z 14007KT 8000 FEW015 BKN027 05/04 Q1024 NOSIG
    LZIB 160430Z 14008KT 7000 FEW010 BKN027 05/04 Q1024
    LZIB 160400Z 14008KT 7000 FEW010 BKN028 05/04 Q1024
    LZIB 160330Z 12006KT 6000 FEW007 BKN028 05/04 Q1024
    LZIB 160300Z 11004KT 6000 FEW006 BKN025 04/03 Q1024
    LZIB 160230Z 07004KT 5000 BR FEW004 BKN022 03/03 Q1024
    LZIB 160200Z 07004KT 3500 BR FEW003 OVC022 03/02 Q1024

    Accident: Air Contractors A30B at Bratislava on Nov 16th 2012, nose gear collapse on landing, runway excursion



Temas Similares

  1. Última hora: 757 de icelandair aterizaje de emergencia problemas en landing gear
    Por pboix en el foro Noticias
    Respuestas: 13
    Último Mensaje: 20/05/2012, 02:48
  2. X-Plane 10 Global-Edition Available 16th February
    Por McFly en el foro Simulación
    Respuestas: 4
    Último Mensaje: 16/01/2012, 09:52
  3. USAF F-16C accident
    Por guest en el foro Noticias
    Respuestas: 2
    Último Mensaje: 01/07/2011, 19:07
  4. Respuestas: 3
    Último Mensaje: 21/10/2010, 23:51
  5. A380 Landing at LEBL Runway 7L
    Por ricarair en el foro Fotos y vídeos
    Respuestas: 20
    Último Mensaje: 03/10/2010, 23:09

Permisos de Publicación

  • No puedes crear nuevos temas
  • No puedes responder temas
  • No puedes subir archivos adjuntos
  • No puedes editar tus mensajes